sensor_id;sensor_type;location;lat;lon;timestamp;pressure;altitude;pressure_sealevel;temperature;humidity
31285;BME280;56605;51.516;6.742;2022-08-01T00:00:28;101378.47;;;18.37;100.00
31285;BME280;56605;51.516;6.742;2022-08-01T00:02:57;101377.44;;;18.45;100.00
31285;BME280;56605;51.516;6.742;2022-08-01T00:05:22;101382.03;;;18.45;100.00
31285;BME280;56605;51.516;6.742;2022-08-01T00:07:47;101379.94;;;18.47;100.00
31285;BME280;56605;51.516;6.742;2022-08-01T00:10:15;101384.75;;;18.45;100.00
31285;BME280;56605;51.516;6.742;2022-08-01T00:12:41;101386.59;;;18.44;100.00
31285;BME280;56605;51.516;6.742;2022-08-01T00:15:08;101382.66;;;18.47;100.00
31285;BME280;56605;51.516;6.742;2022-08-01T00:17:34;101387.00;;;18.48;100.00
31285;BME280;56605;51.516;6.742;2022-08-01T00:19:59;101389.06;;;18.39;100.00
31285;BME280;56605;51.516;6.742;2022-08-01T00:22:25;101388.25;;;18.38;100.00
31285;BME280;56605;51.516;6.742;2022-08-01T00:24:50;101380.75;;;18.41;100.00
31285;BME280;56605;51.516;6.742;2022-08-01T00:27:15;101378.69;;;18.43;100.00
31285;BME280;56605;51.516;6.742;2022-08-01T00:29:41;101381.41;;;18.43;100.00
31285;BME280;56605;51.516;6.742;2022-08-01T00:32:06;101382.44;;;18.48;100.00
31285;BME280;56605;51.516;6.742;2022-08-01T00:34:31;101391.38;;;18.42;100.00
31285;BME280;56605;51.516;6.742;2022-08-01T00:36:57;101391.38;;;18.42;100.00
31285;BME280;56605;51.516;6.742;2022-08-01T00:39:22;101382.03;;;18.45;100.00
31285;BME280;56605;51.516;6.742;2022-08-01T00:41:47;101385.75;;;18.44;100.00
31285;BME280;56605;51.516;6.742;2022-08-01T00:44:12;101379.34;;;18.45;100.00
31285;BME280;56605;51.516;6.742;2022-08-01T00:46:38;101384.97;;;18.43;100.00
31285;BME280;56605;51.516;6.742;2022-08-01T00:49:03;101383.06;;;18.44;100.00
31285;BME280;56605;51.516;6.742;2022-08-01T00:51:29;101386.41;;;18.46;100.00
31285;BME280;56605;51.516;6.742;2022-08-01T00:53:54;101373.72;;;18.46;100.00
31285;BME280;56605;51.516;6.742;2022-08-01T00:56:21;101373.50;;;18.41;100.00
31285;BME280;56605;51.516;6.742;2022-08-01T00:58:49;101366.03;;;18.43;100.00
31285;BME280;56605;51.516;6.742;2022-08-01T01:01:14;101364.53;;;18.34;100.00
31285;BME280;56605;51.516;6.742;2022-08-01T01:03:40;101373.69;;;18.33;100.00
31285;BME280;56605;51.516;6.742;2022-08-01T01:06:15;101377.84;;;18.35;100.00
31285;BME280;56605;51.516;6.742;2022-08-01T01:11:28;101377.84;;;18.42;100.00
31285;BME280;56605;51.516;6.742;2022-08-01T01:14:02;101378.50;;;18.51;100.00
31285;BME280;56605;51.516;6.742;2022-08-01T01:16:30;101373.72;;;18.53;100.00
31285;BME280;56605;51.516;6.742;2022-08-01T01:19:00;101375.19;;;18.56;100.00
31285;BME280;56605;51.516;6.742;2022-08-01T01:21:33;101375.38;;;18.47;100.00
31285;BME280;56605;51.516;6.742;2022-08-01T01:24:20;101376.19;;;18.48;100.00
31285;BME280;56605;51.516;6.742;2022-08-01T01:26:53;101377.44;;;18.45;100.00
31285;BME280;56605;51.516;6.742;2022-08-01T01:29:32;101379.75;;;18.48;100.00
31285;BME280;56605;51.516;6.742;2022-08-01T01:32:13;101372.03;;;18.45;100.00
31285;BME280;56605;51.516;6.742;2022-08-01T01:34:43;101378.31;;;18.46;100.00
31285;BME280;56605;51.516;6.742;2022-08-01T01:37:14;101380.34;;;18.44;100.00
31285;BME280;56605;51.516;6.742;2022-08-01T01:39:41;101374.94;;;18.44;100.00
31285;BME280;56605;51.516;6.742;2022-08-01T01:42:08;101377.44;;;18.45;100.00
31285;BME280;56605;51.516;6.742;2022-08-01T01:44:36;101376.63;;;18.45;100.00
31285;BME280;56605;51.516;6.742;2022-08-01T01:47:02;101386.81;;;18.43;100.00
31285;BME280;56605;51.516;6.742;2022-08-01T01:49:29;101380.16;;;18.45;100.00
31285;BME280;56605;51.516;6.742;2022-08-01T01:51:57;101382.03;;;18.45;100.00
31285;BME280;56605;51.516;6.742;2022-08-01T01:54:25;101378.50;;;18.44;100.00
31285;BME280;56605;51.516;6.742;2022-08-01T01:56:55;101384.97;;;18.43;100.00
31285;BME280;56605;51.516;6.742;2022-08-01T01:59:24;101389.94;;;18.46;100.00
31285;BME280;56605;51.516;6.742;2022-08-01T02:01:52;101384.09;;;18.43;100.00
31285;BME280;56605;51.516;6.742;2022-08-01T02:04:20;101381.84;;;18.46;100.00
31285;BME280;56605;51.516;6.742;2022-08-01T02:06:49;101386.38;;;18.39;100.00
31285;BME280;56605;51.516;6.742;2022-08-01T02:09:17;101387.81;;;18.35;100.00
31285;BME280;56605;51.516;6.742;2022-08-01T02:11:44;101380.34;;;18.37;100.00
31285;BME280;56605;51.516;6.742;2022-08-01T02:14:12;101383.47;;;18.41;100.00
31285;BME280;56605;51.516;6.742;2022-08-01T02:16:41;101380.75;;;18.34;100.00
31285;BME280;56605;51.516;6.742;2022-08-01T02:19:08;101382.41;;;18.28;100.00
31285;BME280;56605;51.516;6.742;2022-08-01T02:21:46;101382.38;;;18.21;100.00
31285;BME280;56605;51.516;6.742;2022-08-01T02:24:16;101375.53;;;18.19;100.00
31285;BME280;56605;51.516;6.742;2022-08-01T02:26:47;101371.38;;;18.23;100.00
31285;BME280;56605;51.516;6.742;2022-08-01T02:29:19;101385.94;;;18.29;100.00
31285;BME280;56605;51.516;6.742;2022-08-01T02:31:47;101377.22;;;18.27;100.00
31285;BME280;56605;51.516;6.742;2022-08-01T02:34:16;101373.06;;;18.31;100.00
31285;BME280;56605;51.516;6.742;2022-08-01T02:36:44;101368.50;;;18.31;100.00
31285;BME280;56605;51.516;6.742;2022-08-01T02:39:14;101375.13;;;18.29;100.00
31285;BME280;56605;51.516;6.742;2022-08-01T02:41:42;101377.63;;;18.30;100.00
31285;BME280;56605;51.516;6.742;2022-08-01T02:44:10;101384.50;;;18.33;100.00
31285;BME280;56605;51.516;6.742;2022-08-01T02:46:48;101380.31;;;18.30;100.00
31285;BME280;56605;51.516;6.742;2022-08-01T02:49:15;101372.00;;;18.32;100.00
31285;BME280;56605;51.516;6.742;2022-08-01T02:51:43;101374.91;;;18.30;100.00
31285;BME280;56605;51.516;6.742;2022-08-01T02:54:11;101378.91;;;18.34;100.00
31285;BME280;56605;51.516;6.742;2022-08-01T02:56:38;101385.97;;;18.35;100.00
31285;BME280;56605;51.516;6.742;2022-08-01T02:59:08;101382.41;;;18.35;100.00
31285;BME280;56605;51.516;6.742;2022-08-01T03:01:35;101379.72;;;18.35;100.00
31285;BME280;56605;51.516;6.742;2022-08-01T03:04:03;101378.06;;;18.34;100.00
31285;BME280;56605;51.516;6.742;2022-08-01T03:06:31;101378.47;;;18.31;100.00
31285;BME280;56605;51.516;6.742;2022-08-01T03:08:58;101385.13;;;18.28;100.00
31285;BME280;56605;51.516;6.742;2022-08-01T03:11:25;101387.63;;;18.30;100.00
31285;BME280;56605;51.516;6.742;2022-08-01T03:13:53;101390.31;;;18.30;100.00
31285;BME280;56605;51.516;6.742;2022-08-01T03:16:21;101389.88;;;18.26;100.00
31285;BME280;56605;51.516;6.742;2022-08-01T03:18:48;101393.22;;;18.28;100.00
31285;BME280;56605;51.516;6.742;2022-08-01T03:21:15;101393.03;;;18.30;100.00
31285;BME280;56605;51.516;6.742;2022-08-01T03:23:42;101403.59;;;18.24;100.00
31285;BME280;56605;51.516;6.742;2022-08-01T03:26:10;101384.06;;;18.22;100.00
31285;BME280;56605;51.516;6.742;2022-08-01T03:28:37;101393.81;;;18.23;100.00
31285;BME280;56605;51.516;6.742;2022-08-01T03:31:04;101398.19;;;18.24;100.00
31285;BME280;56605;51.516;6.742;2022-08-01T03:33:29;101395.69;;;18.23;100.00
31285;BME280;56605;51.516;6.742;2022-08-01T03:35:55;101402.78;;;18.24;100.00
31285;BME280;56605;51.516;6.742;2022-08-01T03:38:25;101400.06;;;18.24;100.00
31285;BME280;56605;51.516;6.742;2022-08-01T03:41:15;101400.47;;;18.21;100.00
31285;BME280;56605;51.516;6.742;2022-08-01T03:43:46;101400.88;;;18.24;100.00
31285;BME280;56605;51.516;6.742;2022-08-01T03:46:17;101402.59;;;18.25;100.00
31285;BME280;56605;51.516;6.742;2022-08-01T03:48:47;101395.09;;;18.28;100.00
31285;BME280;56605;51.516;6.742;2022-08-01T03:51:13;101389.28;;;18.24;100.00
31285;BME280;56605;51.516;6.742;2022-08-01T03:53:41;101392.38;;;18.28;100.00
31285;BME280;56605;51.516;6.742;2022-08-01T03:56:07;101390.94;;;18.25;100.00
31285;BME280;56605;51.516;6.742;2022-08-01T03:58:35;101390.28;;;18.23;100.00
31285;BME280;56605;51.516;6.742;2022-08-01T04:01:01;101389.44;;;18.16;100.00
31285;BME280;56605;51.516;6.742;2022-08-01T04:03:27;101393.38;;;18.13;100.00
31285;BME280;56605;51.516;6.742;2022-08-01T04:05:53;101395.69;;;18.16;100.00
31285;BME280;56605;51.516;6.742;2022-08-01T04:08:18;101393.19;;;18.15;100.00
31285;BME280;56605;51.516;6.742;2022-08-01T04:10:44;101394.78;;;18.09;100.00
31285;BME280;56605;51.516;6.742;2022-08-01T04:13:09;101395.03;;;18.14;100.00
31285;BME280;56605;51.516;6.742;2022-08-01T04:15:34;101402.94;;;18.16;100.00
31285;BME280;56605;51.516;6.742;2022-08-01T04:18:00;101396.72;;;18.15;100.00
31285;BME280;56605;51.516;6.742;2022-08-01T04:20:25;101404.59;;;18.10;100.00
31285;BME280;56605;51.516;6.742;2022-08-01T04:22:50;101406.69;;;18.15;100.00
31285;BME280;56605;51.516;6.742;2022-08-01T04:25:25;101411.69;;;18.18;100.00
31285;BME280;56605;51.516;6.742;2022-08-01T04:27:53;101418.56;;;18.20;100.00
31285;BME280;56605;51.516;6.742;2022-08-01T04:30:23;101423.56;;;18.23;100.00
31285;BME280;56605;51.516;6.742;2022-08-01T04:32:52;101424.19;;;18.25;100.00
31285;BME280;56605;51.516;6.742;2022-08-01T04:35:20;101423.13;;;18.20;100.00
31285;BME280;56605;51.516;6.742;2022-08-01T04:37:47;101423.31;;;18.11;100.00
31285;BME280;56605;51.516;6.742;2022-08-01T04:40:14;101427.03;;;18.10;100.00
31285;BME280;56605;51.516;6.742;2022-08-01T04:42:39;101427.22;;;18.09;100.00
31285;BME280;56605;51.516;6.742;2022-08-01T04:45:06;101425.41;;;18.16;100.00
31285;BME280;56605;51.516;6.742;2022-08-01T04:47:34;101432.63;;;18.09;100.00
31285;BME280;56605;51.516;6.742;2022-08-01T04:50:00;101435.72;;;18.06;100.00
31285;BME280;56605;51.516;6.742;2022-08-01T04:52:33;101448.06;;;18.15;100.00
31285;BME280;56605;51.516;6.742;2022-08-01T04:54:58;101446.22;;;18.22;100.00
31285;BME280;56605;51.516;6.742;2022-08-01T04:57:23;101446.56;;;18.12;100.00
31285;BME280;56605;51.516;6.742;2022-08-01T04:59:49;101444.06;;;18.11;100.00
31285;BME280;56605;51.516;6.742;2022-08-01T05:02:18;101439.97;;;18.15;100.00
31285;BME280;56605;51.516;6.742;2022-08-01T05:04:45;101448.69;;;18.17;100.00
31285;BME280;56605;51.516;6.742;2022-08-01T05:07:11;101449.06;;;18.14;100.00
31285;BME280;56605;51.516;6.742;2022-08-01T05:09:40;101445.97;;;18.10;100.00
31285;BME280;56605;51.516;6.742;2022-08-01T05:12:08;101451.38;;;18.10;100.00
31285;BME280;56605;51.516;6.742;2022-08-01T05:14:34;101453.03;;;18.11;100.00
31285;BME280;56605;51.516;6.742;2022-08-01T05:17:02;101465.03;;;18.09;100.00
31285;BME280;56605;51.516;6.742;2022-08-01T05:19:30;101465.28;;;18.14;100.00
31285;BME280;56605;51.516;6.742;2022-08-01T05:21:57;101462.34;;;18.09;100.00
31285;BME280;56605;51.516;6.742;2022-08-01T05:24:22;101458.78;;;18.08;100.00
31285;BME280;56605;51.516;6.742;2022-08-01T05:26:48;101468.63;;;18.16;100.00
31285;BME280;56605;51.516;6.742;2022-08-01T05:29:14;101460.09;;;18.12;100.00
31285;BME280;56605;51.516;6.742;2022-08-01T05:31:40;101471.34;;;18.16;100.00
31285;BME280;56605;51.516;6.742;2022-08-01T05:34:05;101463.44;;;18.15;100.00
31285;BME280;56605;51.516;6.742;2022-08-01T05:36:30;101474.84;;;18.10;100.00
31285;BME280;56605;51.516;6.742;2022-08-01T05:38:56;101468.56;;;18.09;100.00
31285;BME280;56605;51.516;6.742;2022-08-01T05:41:21;101465.94;;;18.16;100.00
31285;BME280;56605;51.516;6.742;2022-08-01T05:43:46;101474.06;;;18.23;100.00
31285;BME280;56605;51.516;6.742;2022-08-01T05:46:12;101470.13;;;18.25;100.00
31285;BME280;56605;51.516;6.742;2022-08-01T05:48:37;101473.66;;;18.26;100.00
31285;BME280;56605;51.516;6.742;2022-08-01T05:51:03;101475.75;;;18.24;100.00
31285;BME280;56605;51.516;6.742;2022-08-01T05:53:28;101482.41;;;18.35;100.00
31285;BME280;56605;51.516;6.742;2022-08-01T05:55:54;101475.38;;;18.41;100.00
31285;BME280;56605;51.516;6.742;2022-08-01T05:58:19;101473.31;;;18.43;100.00
31285;BME280;56605;51.516;6.742;2022-08-01T06:00:44;101477.28;;;18.47;100.00
31285;BME280;56605;51.516;6.742;2022-08-01T06:03:09;101475.22;;;18.49;100.00
31285;BME280;56605;51.516;6.742;2022-08-01T06:05:36;101475.22;;;18.49;100.00
31285;BME280;56605;51.516;6.742;2022-08-01T06:08:02;101476.88;;;18.50;100.00
31285;BME280;56605;51.516;6.742;2022-08-01T06:10:27;101487.53;;;18.65;100.00
31285;BME280;56605;51.516;6.742;2022-08-01T06:12:52;101488.78;;;18.69;100.00
31285;BME280;56605;51.516;6.742;2022-08-01T06:15:18;101482.97;;;18.72;100.00
31285;BME280;56605;51.516;6.742;2022-08-01T06:17:43;101480.91;;;18.81;100.00
31285;BME280;56605;51.516;6.742;2022-08-01T06:20:09;101475.69;;;18.73;100.00
31285;BME280;56605;51.516;6.742;2022-08-01T06:22:34;101478.00;;;18.83;100.00
31285;BME280;56605;51.516;6.742;2022-08-01T06:25:00;101488.00;;;18.96;100.00
31285;BME280;56605;51.516;6.742;2022-08-01T06:27:25;101479.69;;;18.97;100.00
31285;BME280;56605;51.516;6.742;2022-08-01T06:29:51;101482.19;;;19.06;100.00
31285;BME280;56605;51.516;6.742;2022-08-01T06:32:19;101483.41;;;18.89;100.00
31285;BME280;56605;51.516;6.742;2022-08-01T06:34:44;101481.97;;;19.00;100.00
31285;BME280;56605;51.516;6.742;2022-08-01T06:37:09;101484.72;;;19.07;100.00
31285;BME280;56605;51.516;6.742;2022-08-01T06:39:35;101482.22;;;19.12;100.00
31285;BME280;56605;51.516;6.742;2022-08-01T06:42:00;101480.16;;;19.21;100.00
31285;BME280;56605;51.516;6.742;2022-08-01T06:44:25;101480.16;;;19.28;100.00
31285;BME280;56605;51.516;6.742;2022-08-01T06:46:50;101483.28;;;19.32;100.00
31285;BME280;56605;51.516;6.742;2022-08-01T06:49:17;101485.78;;;19.40;100.00
31285;BME280;56605;51.516;6.742;2022-08-01T06:51:42;101486.59;;;19.54;100.00
31285;BME280;56605;51.516;6.742;2022-08-01T06:54:07;101488.69;;;19.66;100.00
31285;BME280;56605;51.516;6.742;2022-08-01T06:56:33;101486.19;;;19.57;100.00
31285;BME280;56605;51.516;6.742;2022-08-01T06:59:00;101488.47;;;19.54;100.00
31285;BME280;56605;51.516;6.742;2022-08-01T07:01:27;101477.84;;;19.52;100.00
31285;BME280;56605;51.516;6.742;2022-08-01T07:03:53;101489.72;;;19.37;100.00
31285;BME280;56605;51.516;6.742;2022-08-01T07:06:18;101496.16;;;19.70;100.00
31285;BME280;56605;51.516;6.742;2022-08-01T07:08:43;101492.00;;;19.68;100.00
31285;BME280;56605;51.516;6.742;2022-08-01T07:11:09;101497.84;;;19.78;100.00
31285;BME280;56605;51.516;6.742;2022-08-01T07:13:34;101492.84;;;19.75;100.00
31285;BME280;56605;51.516;6.742;2022-08-01T07:15:59;101498.22;;;19.82;100.00
31285;BME280;56605;51.516;6.742;2022-08-01T07:18:25;101494.06;;;19.72;100.00
31285;BME280;56605;51.516;6.742;2022-08-01T07:20:50;101496.34;;;19.89;100.00
31285;BME280;56605;51.516;6.742;2022-08-01T07:23:16;101491.97;;;19.81;100.00
31285;BME280;56605;51.516;6.742;2022-08-01T07:25:41;101496.41;;;19.48;100.00
31285;BME280;56605;51.516;6.742;2022-08-01T07:28:07;101493.03;;;19.67;100.00
31285;BME280;56605;51.516;6.742;2022-08-01T07:30:33;101494.72;;;19.68;100.00
31285;BME280;56605;51.516;6.742;2022-08-01T07:32:58;101498.50;;;19.39;100.00
31285;BME280;56605;51.516;6.742;2022-08-01T07:35:24;101503.47;;;19.36;100.00
31285;BME280;56605;51.516;6.742;2022-08-01T07:37:49;101494.72;;;19.54;100.00
31285;BME280;56605;51.516;6.742;2022-08-01T07:40:16;101504.50;;;19.55;100.00
31285;BME280;56605;51.516;6.742;2022-08-01T07:42:42;101503.84;;;19.80;100.00
31285;BME280;56605;51.516;6.742;2022-08-01T07:45:09;101503.06;;;19.66;100.00
31285;BME280;56605;51.516;6.742;2022-08-01T07:47:35;101505.31;;;19.89;100.00
31285;BME280;56605;51.516;6.742;2022-08-01T07:50:00;101512.38;;;20.04;100.00
31285;BME280;56605;51.516;6.742;2022-08-01T07:52:26;101509.03;;;20.09;98.97
31285;BME280;56605;51.516;6.742;2022-08-01T07:54:52;101509.88;;;20.02;100.00
31285;BME280;56605;51.516;6.742;2022-08-01T07:57:17;101508.97;;;20.29;99.03
31285;BME280;56605;51.516;6.742;2022-08-01T07:59:43;101514.47;;;20.09;100.00
31285;BME280;56605;51.516;6.742;2022-08-01T08:02:08;101512.19;;;20.06;98.88
31285;BME280;56605;51.516;6.742;2022-08-01T08:04:33;101508.50;;;20.46;98.08
31285;BME280;56605;51.516;6.742;2022-08-01T08:06:59;101512.22;;;20.51;97.47
31285;BME280;56605;51.516;6.742;2022-08-01T08:09:24;101515.09;;;20.57;97.68
31285;BME280;56605;51.516;6.742;2022-08-01T08:11:49;101517.94;;;20.30;99.08
31285;BME280;56605;51.516;6.742;2022-08-01T08:14:15;101517.81;;;19.97;100.00
31285;BME280;56605;51.516;6.742;2022-08-01T08:16:41;101517.78;;;20.11;100.00
31285;BME280;56605;51.516;6.742;2022-08-01T08:19:07;101515.56;;;20.53;97.06
31285;BME280;56605;51.516;6.742;2022-08-01T08:21:32;101517.50;;;21.18;94.99
31285;BME280;56605;51.516;6.742;2022-08-01T08:23:57;101520.28;;;21.36;93.81
31285;BME280;56605;51.516;6.742;2022-08-01T08:26:41;101521.84;;;20.93;95.09
31285;BME280;56605;51.516;6.742;2022-08-01T08:29:07;101519.59;;;20.83;96.53
31285;BME280;56605;51.516;6.742;2022-08-01T08:31:32;101528.84;;;21.08;92.04
31285;BME280;56605;51.516;6.742;2022-08-01T08:33:57;101526.56;;;21.05;93.08
31285;BME280;56605;51.516;6.742;2022-08-01T08:36:23;101533.44;;;21.07;91.78
31285;BME280;56605;51.516;6.742;2022-08-01T08:38:48;101526.25;;;21.20;91.04
31285;BME280;56605;51.516;6.742;2022-08-01T08:41:14;101535.66;;;21.68;91.32
31285;BME280;56605;51.516;6.742;2022-08-01T08:43:39;101527.50;;;21.94;85.30
31285;BME280;56605;51.516;6.742;2022-08-01T08:46:05;101532.88;;;22.00;85.35
31285;BME280;56605;51.516;6.742;2022-08-01T08:48:33;101524.66;;;22.63;82.84
31285;BME280;56605;51.516;6.742;2022-08-01T08:51:00;101536.16;;;23.08;81.48
31285;BME280;56605;51.516;6.742;2022-08-01T08:53:25;101527.66;;;22.36;83.78
31285;BME280;56605;51.516;6.742;2022-08-01T08:55:52;101532.28;;;22.17;84.48
31285;BME280;56605;51.516;6.742;2022-08-01T08:58:19;101521.31;;;21.86;84.83
31285;BME280;56605;51.516;6.742;2022-08-01T09:00:45;101531.88;;;21.95;86.27
31285;BME280;56605;51.516;6.742;2022-08-01T09:03:11;101532.97;;;21.42;87.84
31285;BME280;56605;51.516;6.742;2022-08-01T09:05:37;101531.81;;;20.99;89.83
31285;BME280;56605;51.516;6.742;2022-08-01T09:08:06;101525.16;;;21.78;87.43
31285;BME280;56605;51.516;6.742;2022-08-01T09:10:31;101531.00;;;22.38;81.42
31285;BME280;56605;51.516;6.742;2022-08-01T09:13:11;101521.63;;;21.97;81.63
31285;BME280;56605;51.516;6.742;2022-08-01T09:15:40;101532.19;;;22.42;79.89
31285;BME280;56605;51.516;6.742;2022-08-01T09:18:06;101537.00;;;21.84;83.10
31285;BME280;56605;51.516;6.742;2022-08-01T09:20:32;101544.72;;;21.36;84.79
31285;BME280;56605;51.516;6.742;2022-08-01T09:23:00;101536.50;;;22.32;80.30
31285;BME280;56605;51.516;6.742;2022-08-01T09:25:25;101540.91;;;22.33;79.81
31285;BME280;56605;51.516;6.742;2022-08-01T09:28:05;101546.41;;;22.07;82.58
31285;BME280;56605;51.516;6.742;2022-08-01T09:30:36;101549.56;;;21.85;83.36
31285;BME280;56605;51.516;6.742;2022-08-01T09:33:03;101550.50;;;22.16;82.89
31285;BME280;56605;51.516;6.742;2022-08-01T09:35:34;101564.13;;;21.91;83.95
31285;BME280;56605;51.516;6.742;2022-08-01T09:38:19;101556.25;;;21.57;84.87
31285;BME280;56605;51.516;6.742;2022-08-01T09:40:49;101556.13;;;21.71;82.32
31285;BME280;56605;51.516;6.742;2022-08-01T09:43:16;101565.47;;;21.24;85.67
31285;BME280;56605;51.516;6.742;2022-08-01T09:45:42;101568.81;;;20.94;87.52
31285;BME280;56605;51.516;6.742;2022-08-01T09:48:08;101570.72;;;20.80;88.31
31285;BME280;56605;51.516;6.742;2022-08-01T09:50:45;101565.97;;;20.68;88.56
31285;BME280;56605;51.516;6.742;2022-08-01T09:53:12;101572.16;;;20.82;88.69
31285;BME280;56605;51.516;6.742;2022-08-01T09:55:39;101575.59;;;21.93;83.48
31285;BME280;56605;51.516;6.742;2022-08-01T09:58:05;101568.78;;;21.58;83.13
31285;BME280;56605;51.516;6.742;2022-08-01T10:00:31;101568.81;;;22.02;82.18
31285;BME280;56605;51.516;6.742;2022-08-01T10:02:57;101568.63;;;22.41;79.61
31285;BME280;56605;51.516;6.742;2022-08-01T10:05:34;101568.03;;;22.58;77.71
31285;BME280;56605;51.516;6.742;2022-08-01T10:08:01;101576.56;;;23.23;75.46
31285;BME280;56605;51.516;6.742;2022-08-01T10:10:29;101562.13;;;23.23;72.61
31285;BME280;56605;51.516;6.742;2022-08-01T10:12:56;101565.19;;;24.99;67.19
31285;BME280;56605;51.516;6.742;2022-08-01T10:15:24;101558.63;;;23.03;73.41
31285;BME280;56605;51.516;6.742;2022-08-01T10:17:54;101564.63;;;21.81;81.05
31285;BME280;56605;51.516;6.742;2022-08-01T10:20:24;101561.06;;;22.43;80.03
31285;BME280;56605;51.516;6.742;2022-08-01T10:22:53;101560.84;;;21.57;82.41
31285;BME280;56605;51.516;6.742;2022-08-01T10:25:20;101566.09;;;21.26;84.89
31285;BME280;56605;51.516;6.742;2022-08-01T10:27:48;101571.97;;;21.23;83.37
31285;BME280;56605;51.516;6.742;2022-08-01T10:30:14;101570.41;;;21.01;83.60
31285;BME280;56605;51.516;6.742;2022-08-01T10:32:41;101571.22;;;21.09;84.85
31285;BME280;56605;51.516;6.742;2022-08-01T10:35:08;101573.84;;;21.22;84.14
31285;BME280;56605;51.516;6.742;2022-08-01T10:37:35;101574.84;;;20.96;85.71
31285;BME280;56605;51.516;6.742;2022-08-01T10:40:01;101579.66;;;20.94;86.25
31285;BME280;56605;51.516;6.742;2022-08-01T10:42:27;101575.41;;;21.05;85.95
31285;BME280;56605;51.516;6.742;2022-08-01T10:44:54;101579.28;;;20.83;86.64
31285;BME280;56605;51.516;6.742;2022-08-01T10:47:38;101580.63;;;21.06;87.31
31285;BME280;56605;51.516;6.742;2022-08-01T10:50:17;101578.91;;;21.19;85.97
31285;BME280;56605;51.516;6.742;2022-08-01T10:53:05;101570.47;;;21.27;85.50
31285;BME280;56605;51.516;6.742;2022-08-01T10:58:27;101581.47;;;21.07;85.84
31285;BME280;56605;51.516;6.742;2022-08-01T11:06:24;101567.09;;;21.32;85.15
31285;BME280;56605;51.516;6.742;2022-08-01T11:08:52;101574.69;;;21.74;83.50
31285;BME280;56605;51.516;6.742;2022-08-01T11:11:19;101570.41;;;22.85;78.51
31285;BME280;56605;51.516;6.742;2022-08-01T11:16:30;101569.53;;;23.03;77.94
31285;BME280;56605;51.516;6.742;2022-08-01T11:18:56;101567.09;;;22.46;80.99
31285;BME280;56605;51.516;6.742;2022-08-01T11:21:22;101563.59;;;22.76;79.67
31285;BME280;56605;51.516;6.742;2022-08-01T11:23:51;101570.19;;;22.49;79.52
31285;BME280;56605;51.516;6.742;2022-08-01T11:26:18;101565.97;;;22.35;79.46
31285;BME280;56605;51.516;6.742;2022-08-01T11:28:46;101575.03;;;22.10;80.24
31285;BME280;56605;51.516;6.742;2022-08-01T11:31:31;101571.69;;;23.68;74.26
31285;BME280;56605;51.516;6.742;2022-08-01T11:33:57;101568.94;;;23.56;73.29
31285;BME280;56605;51.516;6.742;2022-08-01T11:36:23;101558.59;;;22.91;76.17
31285;BME280;56605;51.516;6.742;2022-08-01T11:41:25;101564.09;;;24.18;75.07
31285;BME280;56605;51.516;6.742;2022-08-01T11:44:05;101564.44;;;23.98;70.41
31285;BME280;56605;51.516;6.742;2022-08-01T11:54:48;101556.19;;;23.14;72.07
31285;BME280;56605;51.516;6.742;2022-08-01T11:57:18;101551.28;;;22.73;73.11
31285;BME280;56605;51.516;6.742;2022-08-01T11:59:47;101554.69;;;25.25;66.98
31285;BME280;56605;51.516;6.742;2022-08-01T12:02:29;101558.53;;;22.79;72.93
31285;BME280;56605;51.516;6.742;2022-08-01T12:05:01;101561.75;;;22.58;76.83
31285;BME280;56605;51.516;6.742;2022-08-01T12:07:29;101559.84;;;22.39;77.75
31285;BME280;56605;51.516;6.742;2022-08-01T12:10:19;101568.69;;;22.35;78.13
31285;BME280;56605;51.516;6.742;2022-08-01T12:12:50;101577.06;;;22.14;78.07
31285;BME280;56605;51.516;6.742;2022-08-01T12:15:16;101576.00;;;22.15;78.13
31285;BME280;56605;51.516;6.742;2022-08-01T12:17:47;101571.56;;;22.21;78.15
31285;BME280;56605;51.516;6.742;2022-08-01T12:20:14;101577.53;;;22.67;76.61
31285;BME280;56605;51.516;6.742;2022-08-01T12:22:41;101574.16;;;23.46;71.95
31285;BME280;56605;51.516;6.742;2022-08-01T12:25:11;101570.50;;;24.00;69.43
31285;BME280;56605;51.516;6.742;2022-08-01T12:27:38;101571.16;;;24.84;67.29
31285;BME280;56605;51.516;6.742;2022-08-01T12:30:11;101570.63;;;23.81;67.91
31285;BME280;56605;51.516;6.742;2022-08-01T12:32:39;101555.91;;;23.03;72.10
31285;BME280;56605;51.516;6.742;2022-08-01T12:35:06;101558.34;;;22.43;75.77
31285;BME280;56605;51.516;6.742;2022-08-01T12:37:40;101564.19;;;21.84;78.58
31285;BME280;56605;51.516;6.742;2022-08-01T12:40:21;101562.41;;;21.97;78.52
31285;BME280;56605;51.516;6.742;2022-08-01T12:42:49;101564.00;;;22.04;78.69
31285;BME280;56605;51.516;6.742;2022-08-01T12:45:17;101567.09;;;22.64;76.74
31285;BME280;56605;51.516;6.742;2022-08-01T12:47:43;101566.69;;;23.53;72.76
31285;BME280;56605;51.516;6.742;2022-08-01T12:50:15;101575.91;;;23.40;70.92
31285;BME280;56605;51.516;6.742;2022-08-01T12:52:41;101575.50;;;23.79;69.15
31285;BME280;56605;51.516;6.742;2022-08-01T12:57:41;101565.63;;;24.02;68.75
31285;BME280;56605;51.516;6.742;2022-08-01T13:00:13;101569.31;;;22.86;72.62
31285;BME280;56605;51.516;6.742;2022-08-01T13:02:41;101573.28;;;22.90;70.89
31285;BME280;56605;51.516;6.742;2022-08-01T13:05:07;101576.56;;;22.43;72.92
31285;BME280;56605;51.516;6.742;2022-08-01T13:07:39;101573.66;;;22.57;73.01
31285;BME280;56605;51.516;6.742;2022-08-01T13:10:05;101573.63;;;22.45;74.41
31285;BME280;56605;51.516;6.742;2022-08-01T13:12:31;101577.31;;;22.69;74.67